Ana Sayfa
METAR-TAF:

METAR-TAF

Havaalanları :

Savannakhet, Laos

Enlem: 16-33-24N, Boylam: 104-45-34E, yükseklik: 155 m

Güncel hava durumu gözlemi

Rapor saat 12:00 UTC de 5 saat ve 10 dakika önce yapıldı.
Rüzgar doğudan 2 kt
Sıcaklık 33°C
Nem 56%
Basınç 1003 hPa
Görüş mesafesi: 3000 m
1800 ft yükseklikte parçalı bulutlu
Toz Pusu

METAR: VLSK 161200Z 09002KT 3000 HZ SCT018 33/23 Q1003 NOSIG

Saat: 00:10 (17:10 UTC)

Tahmin

Rapor saat 11:00 UTC de 6 saat ve 10 dakika önce yapıldı.
Ayın 16'si saat 12 UTC'den ayın 17'si saat 12 UTC'ye kadar geçerli Tahmin
Rüzgar batı/güneybatıdan 4 kt
Görüş mesafesi: 8000 m
2000 ft yükseklikte parçalı bulutlu
4000 ft yükseklikte parçalı bulutlu
10000 ft yükseklikte parçalı bulutlu

TAF: VLSK 161100Z 1612/1712 24004KT 8000 SCT020 SCT040 SCT100

4.000'den fazla havaalanı için hava durumu gözlemleri ve tahminleri (METAR ve TAF raporları).

Kullanılabilir istasyonlar harita üzerinde sarı ve kırmızı noktalarla gösterilir.

İstasyonun adını görmek için fareyi noktanın üzerinde gezdirin.

Sonrasında hava gözlem ve tahminlerini görmek için tıklayın.

Haritayı değiştirmek için: yaklaştırmak için siyah artı işaretli yeşil düğmeye ve uzaklaştırmak için de eksi işaretli düğmeye hızla tıklayın; bitişik haritalar için yeşil okları kullanın.


METAR-TAF: